createdAt,value
2022-10-17T00:00:31.019Z,17.25
2022-10-17T00:02:58.079Z,17.19
2022-10-17T00:05:25.185Z,17.31
2022-10-17T00:07:52.894Z,17.34
2022-10-17T00:10:20.030Z,17.24
2022-10-17T00:12:46.647Z,17.14
2022-10-17T00:15:18.329Z,17.11
2022-10-17T00:17:45.218Z,17.18
2022-10-17T00:20:12.313Z,17.11
2022-10-17T00:22:39.107Z,17.22
2022-10-17T00:25:06.233Z,17.01
2022-10-17T00:27:37.109Z,16.91
2022-10-17T00:30:04.340Z,16.98
2022-10-17T00:32:31.851Z,16.92
2022-10-17T00:34:58.709Z,16.87
2022-10-17T00:37:25.469Z,16.88
2022-10-17T00:39:52.118Z,16.90
2022-10-17T00:42:18.736Z,16.94
2022-10-17T00:44:47.481Z,17.21
2022-10-17T00:47:18.298Z,17.24
2022-10-17T00:49:45.745Z,17.07
2022-10-17T00:52:17.686Z,16.83
2022-10-17T00:54:49.093Z,17.10
2022-10-17T00:57:17.018Z,16.87
2022-10-17T00:59:48.755Z,16.93
2022-10-17T01:02:18.880Z,17.05
2022-10-17T01:04:50.025Z,17.22
2022-10-17T01:07:16.975Z,16.99
2022-10-17T01:09:46.186Z,16.88
2022-10-17T01:12:21.888Z,17.01
2022-10-17T01:15:23.912Z,17.00
2022-10-17T01:18:19.478Z,16.92
2022-10-17T01:20:59.276Z,17.11
2022-10-17T01:24:03.513Z,17.16
2022-10-17T01:26:58.880Z,17.20
2022-10-17T01:29:40.849Z,17.06
2022-10-17T01:32:20.066Z,17.03
2022-10-17T01:35:11.603Z,16.93
2022-10-17T01:37:55.725Z,16.92
2022-10-17T01:40:36.881Z,16.86
2022-10-17T01:43:12.742Z,16.92
2022-10-17T01:46:03.327Z,16.77
2022-10-17T01:48:37.953Z,16.76
2022-10-17T01:51:22.631Z,16.65
2022-10-17T01:53:54.783Z,16.91
2022-10-17T01:56:25.848Z,16.81
2022-10-17T01:58:58.650Z,16.68
2022-10-17T02:01:28.870Z,16.66
2022-10-17T02:03:58.168Z,16.72
2022-10-17T02:06:24.993Z,16.65
2022-10-17T02:08:51.689Z,16.55
2022-10-17T02:11:24.950Z,16.65
2022-10-17T02:14:07.215Z,16.80
2022-10-17T02:16:39.436Z,16.75
2022-10-17T02:19:26.454Z,16.77
2022-10-17T02:22:10.085Z,16.78
2022-10-17T02:24:43.654Z,16.74
2022-10-17T02:27:47.679Z,16.82
2022-10-17T02:30:34.009Z,16.59
2022-10-17T02:33:07.928Z,16.74
2022-10-17T02:35:40.319Z,16.58
2022-10-17T02:38:09.752Z,16.53
2022-10-17T02:40:38.104Z,16.72
2022-10-17T02:43:05.023Z,16.61
2022-10-17T02:45:35.982Z,16.68
2022-10-17T02:48:29.306Z,16.62
2022-10-17T02:51:05.452Z,16.60
2022-10-17T02:53:47.989Z,16.45
2022-10-17T02:56:18.647Z,16.49
2022-10-17T02:58:50.969Z,16.47
2022-10-17T03:01:18.977Z,16.52
2022-10-17T03:03:46.006Z,16.55
2022-10-17T03:06:12.832Z,16.45
2022-10-17T03:08:39.702Z,16.45
2022-10-17T03:11:06.517Z,16.35
2022-10-17T03:13:36.217Z,16.34
2022-10-17T03:16:06.322Z,16.37
2022-10-17T03:18:33.257Z,16.31
2022-10-17T03:21:01.256Z,16.03
2022-10-17T03:23:28.459Z,16.33
2022-10-17T03:25:55.459Z,16.29
2022-10-17T03:28:22.403Z,16.29
2022-10-17T03:30:50.103Z,16.26
2022-10-17T03:33:16.962Z,16.07
2022-10-17T03:35:43.693Z,16.01
2022-10-17T03:38:10.358Z,16.30
2022-10-17T03:40:37.136Z,16.32
2022-10-17T03:43:04.226Z,16.44
2022-10-17T03:45:30.886Z,16.29
2022-10-17T03:47:59.003Z,16.24
2022-10-17T03:50:26.131Z,16.15
2022-10-17T03:52:53.192Z,16.03
2022-10-17T03:55:19.910Z,16.06
2022-10-17T03:57:47.064Z,15.97
2022-10-17T04:00:18.046Z,16.13
2022-10-17T04:02:52.709Z,16.06
2022-10-17T04:05:19.653Z,15.98
2022-10-17T04:07:47.675Z,15.89
2022-10-17T04:10:16.320Z,15.92
2022-10-17T04:12:43.257Z,15.90
2022-10-17T04:15:10.658Z,16.02
2022-10-17T04:17:38.478Z,15.94
2022-10-17T04:20:07.086Z,15.88
2022-10-17T04:22:34.608Z,15.83
2022-10-17T04:25:04.329Z,15.81
2022-10-17T04:27:36.068Z,15.78
2022-10-17T04:30:03.166Z,15.77
2022-10-17T04:32:33.181Z,15.83
2022-10-17T04:35:08.967Z,15.80
2022-10-17T04:37:36.049Z,15.79
2022-10-17T04:40:09.664Z,15.80
2022-10-17T04:42:36.783Z,15.77
2022-10-17T04:45:04.917Z,15.98
2022-10-17T04:47:32.490Z,15.96
2022-10-17T04:49:59.241Z,16.16
2022-10-17T04:52:26.845Z,16.04
2022-10-17T04:54:54.062Z,15.92
2022-10-17T04:57:21.617Z,16.06
2022-10-17T04:59:56.146Z,16.04
2022-10-17T05:02:30.943Z,16.13
2022-10-17T05:04:58.485Z,15.90
2022-10-17T05:07:25.167Z,15.93
2022-10-17T05:09:51.760Z,15.79
2022-10-17T05:12:19.090Z,15.70
2022-10-17T05:14:48.587Z,15.88
2022-10-17T05:17:15.388Z,15.97
2022-10-17T05:19:42.010Z,15.90
2022-10-17T05:22:09.558Z,16.02
2022-10-17T05:24:36.597Z,15.77
2022-10-17T05:27:03.574Z,15.76
2022-10-17T05:29:30.632Z,15.69
2022-10-17T05:32:06.015Z,15.68
2022-10-17T05:34:34.160Z,16.03
2022-10-17T05:37:00.847Z,15.92
2022-10-17T05:39:27.910Z,16.14
2022-10-17T05:41:56.489Z,16.01
2022-10-17T05:44:23.306Z,15.79
2022-10-17T05:46:55.044Z,16.00
2022-10-17T05:49:32.519Z,15.86
2022-10-17T05:52:07.805Z,15.94
2022-10-17T05:54:45.690Z,15.99
2022-10-17T05:57:12.702Z,15.80
2022-10-17T05:59:40.689Z,15.84
2022-10-17T06:02:14.445Z,15.71
2022-10-17T06:04:45.594Z,15.89
2022-10-17T06:07:15.841Z,16.16
2022-10-17T06:12:15.778Z,15.99
2022-10-17T06:14:43.583Z,15.96
2022-10-17T06:17:16.065Z,15.87
2022-10-17T06:19:44.817Z,16.15
2022-10-17T06:22:12.837Z,16.11
2022-10-17T06:24:40.197Z,16.12
2022-10-17T06:27:11.000Z,16.20
2022-10-17T06:29:39.632Z,16.28
2022-10-17T06:32:09.787Z,16.27
2022-10-17T06:34:40.050Z,16.30
2022-10-17T06:37:06.897Z,16.48
2022-10-17T06:39:36.380Z,16.43
2022-10-17T06:42:07.307Z,16.52
2022-10-17T06:45:00.244Z,16.61
2022-10-17T06:47:40.414Z,16.60
2022-10-17T06:50:26.909Z,16.67
2022-10-17T06:53:10.564Z,16.75
2022-10-17T06:55:53.112Z,16.81
2022-10-17T06:58:42.894Z,16.75
2022-10-17T07:01:24.340Z,16.97
2022-10-17T07:03:55.074Z,17.02
2022-10-17T07:06:24.598Z,16.92
2022-10-17T07:08:52.361Z,17.02
2022-10-17T07:11:20.767Z,17.11
2022-10-17T07:13:49.742Z,17.19
2022-10-17T07:16:16.529Z,17.41
2022-10-17T07:18:49.753Z,17.62
2022-10-17T07:21:17.602Z,17.71
2022-10-17T07:23:44.295Z,17.71
2022-10-17T07:26:13.573Z,17.80
2022-10-17T07:28:44.053Z,17.85
2022-10-17T07:31:24.433Z,18.03
2022-10-17T07:33:54.683Z,17.90
2022-10-17T07:36:21.415Z,18.18
2022-10-17T07:38:48.266Z,18.32
2022-10-17T07:41:19.208Z,18.26
2022-10-17T07:43:49.257Z,18.20
2022-10-17T07:46:19.929Z,18.28
2022-10-17T07:48:47.064Z,18.31
2022-10-17T07:51:13.881Z,18.35
2022-10-17T07:53:42.749Z,18.37
2022-10-17T07:56:12.364Z,18.49
2022-10-17T07:58:39.465Z,18.40
2022-10-17T08:01:14.810Z,18.40
2022-10-17T08:03:44.110Z,18.44
2022-10-17T08:06:11.182Z,18.58
2022-10-17T08:08:37.802Z,18.55
2022-10-17T08:11:07.549Z,18.90
2022-10-17T08:13:34.879Z,18.93
2022-10-17T08:16:02.786Z,19.12
2022-10-17T08:18:29.408Z,18.95
2022-10-17T08:21:00.389Z,18.65
2022-10-17T08:23:27.830Z,18.79
2022-10-17T08:25:54.642Z,18.88
2022-10-17T08:28:21.407Z,19.10
2022-10-17T08:30:48.143Z,19.21
2022-10-17T08:33:14.798Z,19.31
2022-10-17T08:35:41.585Z,19.46
2022-10-17T08:38:09.998Z,19.51
2022-10-17T08:40:42.669Z,19.50
2022-10-17T08:43:47.465Z,19.58
2022-10-17T08:46:19.223Z,19.66
2022-10-17T08:48:47.826Z,19.53
2022-10-17T08:51:20.486Z,19.38
2022-10-17T08:53:53.328Z,19.28
2022-10-17T08:56:44.078Z,19.26
2022-10-17T08:59:18.872Z,19.48
2022-10-17T09:01:58.328Z,19.67
2022-10-17T09:04:40.584Z,19.99
2022-10-17T09:07:17.918Z,20.49
2022-10-17T09:10:02.589Z,20.88
2022-10-17T09:12:44.712Z,21.44
2022-10-17T09:15:14.244Z,21.08
2022-10-17T09:17:55.893Z,20.84
2022-10-17T09:20:27.729Z,20.81
2022-10-17T09:23:21.437Z,20.31
2022-10-17T09:25:55.333Z,20.22
2022-10-17T09:28:30.290Z,20.09
2022-10-17T09:31:01.268Z,19.98
2022-10-17T09:33:53.833Z,19.91
2022-10-17T09:36:27.424Z,19.72
2022-10-17T09:39:00.147Z,19.86
2022-10-17T09:41:46.461Z,19.94
2022-10-17T09:44:13.706Z,20.09
2022-10-17T09:46:40.711Z,20.06
2022-10-17T09:49:18.703Z,20.20
2022-10-17T09:51:46.017Z,20.27
2022-10-17T09:54:24.091Z,20.29
2022-10-17T09:57:05.764Z,20.26
2022-10-17T09:59:57.300Z,20.43
2022-10-17T10:02:25.593Z,20.49
2022-10-17T10:05:09.566Z,20.57
2022-10-17T10:07:39.665Z,20.70
2022-10-17T10:10:22.487Z,20.64
2022-10-17T10:13:06.186Z,20.73
2022-10-17T10:15:41.292Z,20.81
2022-10-17T10:21:08.504Z,20.96
2022-10-17T10:23:40.150Z,21.03
2022-10-17T10:26:29.784Z,21.12
2022-10-17T10:29:06.597Z,21.06
2022-10-17T10:31:40.249Z,21.04
2022-10-17T10:34:19.718Z,21.17
2022-10-17T10:36:54.961Z,21.26
2022-10-17T10:39:51.004Z,21.20
2022-10-17T10:42:37.257Z,21.32
2022-10-17T10:45:19.078Z,21.35
2022-10-17T10:47:56.148Z,21.29
2022-10-17T10:50:46.421Z,21.36
2022-10-17T10:53:38.342Z,21.40
2022-10-17T10:56:30.205Z,21.37
2022-10-17T10:59:09.177Z,21.18
2022-10-17T11:01:48.075Z,21.43
2022-10-17T11:04:27.100Z,21.22
2022-10-17T11:07:02.177Z,21.07
2022-10-17T11:10:00.266Z,21.08
2022-10-17T11:12:45.774Z,21.21
2022-10-17T11:15:28.710Z,20.85
2022-10-17T11:18:00.119Z,20.85
2022-10-17T11:20:57.620Z,21.22
2022-10-17T11:23:40.211Z,21.15
2022-10-17T11:26:13.822Z,21.09
2022-10-17T11:28:40.497Z,21.09
2022-10-17T11:31:13.490Z,21.35
2022-10-17T11:33:58.269Z,21.16
2022-10-17T11:36:30.592Z,21.37
2022-10-17T11:39:03.420Z,21.19
2022-10-17T11:41:39.563Z,21.21
2022-10-17T11:44:20.437Z,21.21
2022-10-17T11:46:59.005Z,21.29
2022-10-17T11:49:34.250Z,21.51
2022-10-17T11:52:31.907Z,21.15
2022-10-17T11:55:16.195Z,20.78
2022-10-17T11:58:05.903Z,21.44
2022-10-17T12:01:08.349Z,21.21
2022-10-17T12:03:48.092Z,21.49
2022-10-17T12:06:36.514Z,21.47
2022-10-17T12:09:38.746Z,21.00
2022-10-17T12:12:05.699Z,21.17
2022-10-17T12:14:45.050Z,21.48
2022-10-17T12:17:33.019Z,21.82
2022-10-17T12:20:25.132Z,21.64
2022-10-17T12:22:59.294Z,21.28
2022-10-17T12:25:33.609Z,21.11
2022-10-17T12:28:13.854Z,21.21
2022-10-17T12:31:17.189Z,21.13
2022-10-17T12:33:52.904Z,21.61
2022-10-17T12:36:22.226Z,21.47
2022-10-17T12:39:14.610Z,21.32
2022-10-17T12:41:42.175Z,21.82
2022-10-17T12:44:15.066Z,22.08
2022-10-17T12:47:10.882Z,21.48
2022-10-17T12:49:56.598Z,21.67
2022-10-17T12:52:25.047Z,21.30
2022-10-17T12:55:15.039Z,21.48
2022-10-17T12:57:58.537Z,21.82
2022-10-17T13:00:34.977Z,21.75
2022-10-17T13:03:23.897Z,22.01
2022-10-17T13:05:57.498Z,22.00
2022-10-17T13:08:29.051Z,21.49
2022-10-17T13:10:57.054Z,21.30
2022-10-17T13:13:36.243Z,21.23
2022-10-17T13:16:03.232Z,22.07
2022-10-17T13:18:30.282Z,22.08
2022-10-17T13:21:00.022Z,22.03
2022-10-17T13:23:31.001Z,21.70
2022-10-17T13:26:21.916Z,22.28
2022-10-17T13:29:04.673Z,21.76
2022-10-17T13:31:37.150Z,22.21
2022-10-17T13:34:06.680Z,22.54
2022-10-17T13:36:35.150Z,21.90
2022-10-17T13:39:12.087Z,21.83
2022-10-17T13:41:41.747Z,22.33
2022-10-17T13:44:19.200Z,22.55
2022-10-17T13:46:46.546Z,22.29
2022-10-17T13:49:24.419Z,22.11
2022-10-17T13:51:56.055Z,22.40
2022-10-17T13:54:43.000Z,22.79
2022-10-17T13:57:20.860Z,22.67
2022-10-17T13:59:57.655Z,22.61
2022-10-17T14:02:27.907Z,22.47
2022-10-17T14:05:19.951Z,22.28
2022-10-17T14:08:16.918Z,22.04
2022-10-17T14:10:38.672Z,22.17
2022-10-17T14:13:08.251Z,22.21
2022-10-17T14:15:36.678Z,22.68
2022-10-17T14:18:07.944Z,22.83
2022-10-17T14:23:32.255Z,22.26
2022-10-17T14:26:21.417Z,22.29
2022-10-17T14:29:07.309Z,22.09
2022-10-17T14:31:36.756Z,22.34
2022-10-17T14:34:04.909Z,21.94
2022-10-17T14:36:35.268Z,21.81
2022-10-17T14:39:03.658Z,21.77
2022-10-17T14:41:42.983Z,21.76
2022-10-17T14:44:19.186Z,21.81
2022-10-17T14:46:51.003Z,21.97
2022-10-17T14:49:27.348Z,22.08
2022-10-17T14:52:24.715Z,21.91
2022-10-17T14:54:51.885Z,22.03
2022-10-17T14:57:27.807Z,22.04
2022-10-17T14:59:58.047Z,22.11
2022-10-17T15:02:27.157Z,22.52
2022-10-17T15:04:54.806Z,22.44
2022-10-17T15:07:21.729Z,22.47
2022-10-17T15:09:50.468Z,22.47
2022-10-17T15:12:19.619Z,22.48
2022-10-17T15:14:48.367Z,22.26
2022-10-17T15:17:20.539Z,22.35
2022-10-17T15:19:48.026Z,22.25
2022-10-17T15:22:16.092Z,22.19
2022-10-17T15:24:42.995Z,22.10
2022-10-17T15:27:18.127Z,22.24
2022-10-17T15:29:45.493Z,22.29
2022-10-17T15:32:12.222Z,22.36
2022-10-17T15:34:39.387Z,22.37
2022-10-17T15:37:07.471Z,22.36
2022-10-17T15:39:34.045Z,22.23
2022-10-17T15:42:00.687Z,22.02
2022-10-17T15:44:27.323Z,22.12
2022-10-17T15:46:55.696Z,22.01
2022-10-17T15:49:22.385Z,22.06
2022-10-17T15:51:53.055Z,22.21
2022-10-17T15:54:21.952Z,22.00
2022-10-17T15:56:53.968Z,21.80
2022-10-17T15:59:25.899Z,21.91
2022-10-17T16:01:52.622Z,21.78
2022-10-17T16:04:19.241Z,21.76
2022-10-17T16:06:45.904Z,21.93
2022-10-17T16:09:12.520Z,21.71
2022-10-17T16:11:41.802Z,21.74
2022-10-17T16:14:12.549Z,21.57
2022-10-17T16:16:39.546Z,21.56
2022-10-17T16:19:06.799Z,21.68
2022-10-17T16:21:38.107Z,21.67
2022-10-17T16:24:05.283Z,21.94
2022-10-17T16:26:32.323Z,21.90
2022-10-17T16:29:02.579Z,21.70
2022-10-17T16:31:34.256Z,21.69
2022-10-17T16:34:02.329Z,21.57
2022-10-17T16:36:29.816Z,21.73
2022-10-17T16:38:56.518Z,21.63
2022-10-17T16:41:26.356Z,21.65
2022-10-17T16:43:55.577Z,21.47
2022-10-17T16:46:23.966Z,21.56
2022-10-17T16:48:50.675Z,21.69
2022-10-17T16:51:18.837Z,21.53
2022-10-17T16:53:50.684Z,21.24
2022-10-17T16:56:19.438Z,21.21
2022-10-17T16:58:46.501Z,21.20
2022-10-17T17:01:21.356Z,21.24
2022-10-17T17:03:48.249Z,21.28
2022-10-17T17:06:17.167Z,21.33
2022-10-17T17:08:43.916Z,21.31
2022-10-17T17:11:12.238Z,21.20
2022-10-17T17:13:39.336Z,21.23
2022-10-17T17:16:08.682Z,21.32
2022-10-17T17:18:35.741Z,21.41
2022-10-17T17:21:04.703Z,21.41
2022-10-17T17:23:33.603Z,21.14
2022-10-17T17:26:02.685Z,21.15
2022-10-17T17:28:30.420Z,20.98
2022-10-17T17:30:57.251Z,20.82
2022-10-17T17:33:25.070Z,20.75
2022-10-17T17:36:00.127Z,20.70
2022-10-17T17:38:31.848Z,20.64
2022-10-17T17:40:58.612Z,20.61
2022-10-17T17:43:25.600Z,20.59
2022-10-17T17:45:52.686Z,20.57
2022-10-17T17:48:20.778Z,20.58
2022-10-17T17:50:47.953Z,20.55
2022-10-17T17:53:16.728Z,20.54
2022-10-17T17:55:44.335Z,20.58
2022-10-17T17:58:12.239Z,20.57
2022-10-17T18:00:40.772Z,20.71
2022-10-17T18:03:07.854Z,20.91
2022-10-17T18:05:35.948Z,20.86
2022-10-17T18:08:04.706Z,20.71
2022-10-17T18:10:32.807Z,20.68
2022-10-17T18:12:59.445Z,20.60
2022-10-17T18:15:26.394Z,20.64
2022-10-17T18:17:53.020Z,20.83
2022-10-17T18:20:19.672Z,20.71
2022-10-17T18:22:49.503Z,20.65
2022-10-17T18:25:16.452Z,20.52
2022-10-17T18:27:43.028Z,20.48
2022-10-17T18:30:10.241Z,20.41
2022-10-17T18:32:38.907Z,20.36
2022-10-17T18:35:05.971Z,20.47
2022-10-17T18:37:32.671Z,20.42
2022-10-17T18:39:59.294Z,20.40
2022-10-17T18:42:26.030Z,20.35
2022-10-17T18:44:53.325Z,20.32
2022-10-17T18:47:21.023Z,20.29
2022-10-17T18:49:48.500Z,20.29
2022-10-17T18:52:15.283Z,20.30
2022-10-17T18:54:41.930Z,20.26
2022-10-17T18:57:08.572Z,20.21
2022-10-17T18:59:35.207Z,20.21
2022-10-17T19:02:01.978Z,20.17
2022-10-17T19:04:28.741Z,20.07
2022-10-17T19:06:55.459Z,20.06
2022-10-17T19:09:22.105Z,20.06
2022-10-17T19:11:49.151Z,20.04
2022-10-17T19:14:16.002Z,20.06
2022-10-17T19:16:48.768Z,20.06
2022-10-17T19:19:21.325Z,20.02
2022-10-17T19:21:51.602Z,20.03
2022-10-17T19:24:21.361Z,19.95
2022-10-17T19:26:50.321Z,19.92
2022-10-17T19:29:18.590Z,19.88
2022-10-17T19:31:46.875Z,19.90
2022-10-17T19:34:15.217Z,19.96
2022-10-17T19:36:42.700Z,19.91
2022-10-17T19:39:13.952Z,19.85
2022-10-17T19:41:42.261Z,20.04
2022-10-17T19:44:11.751Z,20.08
2022-10-17T19:46:38.773Z,20.15
2022-10-17T19:49:06.691Z,20.21
2022-10-17T19:51:33.750Z,20.12
2022-10-17T19:54:01.678Z,19.91
2022-10-17T19:56:30.609Z,19.79
2022-10-17T19:58:58.079Z,19.87
2022-10-17T20:01:28.127Z,19.87
2022-10-17T20:03:55.690Z,19.96
2022-10-17T20:06:23.198Z,19.79
2022-10-17T20:08:50.449Z,19.67
2022-10-17T20:11:20.499Z,19.75
2022-10-17T20:13:47.729Z,19.77
2022-10-17T20:16:20.377Z,19.71
2022-10-17T20:18:47.874Z,19.71
2022-10-17T20:21:18.546Z,19.63
2022-10-17T20:23:47.497Z,19.64
2022-10-17T20:26:26.262Z,19.58
2022-10-17T20:29:08.730Z,19.78
2022-10-17T20:31:35.691Z,19.65
2022-10-17T20:34:03.368Z,19.62
2022-10-17T20:36:30.271Z,19.62
2022-10-17T20:38:58.222Z,19.58
2022-10-17T20:41:26.327Z,19.56
2022-10-17T20:43:55.191Z,19.59
2022-10-17T20:46:35.802Z,19.72
2022-10-17T20:49:03.618Z,19.62
2022-10-17T20:51:30.597Z,19.50
2022-10-17T20:56:30.994Z,19.47
2022-10-17T20:59:01.122Z,19.55
2022-10-17T21:01:29.194Z,19.66
2022-10-17T21:03:59.659Z,19.49
2022-10-17T21:06:27.874Z,19.40
2022-10-17T21:08:55.698Z,19.39
2022-10-17T21:11:25.270Z,19.36
2022-10-17T21:14:00.701Z,19.34
2022-10-17T21:16:29.019Z,19.37
2022-10-17T21:18:56.375Z,19.36
2022-10-17T21:21:26.927Z,19.39
2022-10-17T21:24:01.068Z,19.35
2022-10-17T21:26:28.862Z,19.33
2022-10-17T21:28:55.481Z,19.30
2022-10-17T21:31:24.986Z,19.29
2022-10-17T21:33:54.583Z,19.38
2022-10-17T21:36:22.874Z,19.58
2022-10-17T21:38:52.056Z,19.66
2022-10-17T21:41:20.406Z,19.44
2022-10-17T21:43:48.061Z,19.42
2022-10-17T21:46:17.216Z,19.60
2022-10-17T21:48:44.967Z,19.49
2022-10-17T21:51:14.351Z,19.48
2022-10-17T21:53:41.608Z,19.50
2022-10-17T21:56:12.778Z,19.31
2022-10-17T21:58:39.536Z,19.25
2022-10-17T22:01:10.405Z,19.22
2022-10-17T22:03:42.776Z,19.25
2022-10-17T22:09:01.245Z,19.16
2022-10-17T22:11:31.116Z,19.18
2022-10-17T22:14:10.108Z,19.14
2022-10-17T22:16:38.427Z,19.36
2022-10-17T22:19:07.000Z,19.56
2022-10-17T22:21:35.741Z,19.48
2022-10-17T22:24:05.689Z,19.56
2022-10-17T22:26:35.399Z,19.57
2022-10-17T22:29:04.317Z,19.48
2022-10-17T22:31:31.327Z,19.36
2022-10-17T22:33:58.162Z,19.14
2022-10-17T22:36:24.852Z,19.10
2022-10-17T22:38:51.864Z,18.95
2022-10-17T22:41:18.882Z,19.18
2022-10-17T22:43:45.497Z,19.16
2022-10-17T22:46:13.692Z,19.05
2022-10-17T22:48:40.443Z,18.88
2022-10-17T22:51:07.571Z,18.91
2022-10-17T22:53:35.293Z,18.88
2022-10-17T22:56:12.203Z,18.90
2022-10-17T22:58:38.946Z,18.95
2022-10-17T23:01:07.031Z,18.65
2022-10-17T23:03:35.142Z,18.63
2022-10-17T23:06:02.805Z,18.83
2022-10-17T23:08:29.518Z,19.12
2022-10-17T23:10:56.195Z,19.06
2022-10-17T23:13:22.937Z,18.78
2022-10-17T23:15:51.758Z,18.76
2022-10-17T23:18:19.421Z,18.69
2022-10-17T23:20:46.466Z,18.77
2022-10-17T23:23:13.327Z,18.90
2022-10-17T23:25:40.044Z,18.92
2022-10-17T23:28:10.091Z,18.79
2022-10-17T23:30:38.905Z,18.83
2022-10-17T23:33:06.789Z,18.92
2022-10-17T23:35:35.655Z,18.90
2022-10-17T23:38:02.571Z,18.82
2022-10-17T23:40:29.491Z,18.76
2022-10-17T23:42:56.148Z,18.83
2022-10-17T23:45:22.810Z,18.68
2022-10-17T23:47:49.712Z,18.56
2022-10-17T23:50:16.657Z,18.70
2022-10-17T23:52:43.668Z,18.74
2022-10-17T23:55:10.546Z,18.79
2022-10-17T23:57:38.539Z,18.58
